Time;durP1;ratioP1;P1;durP2;ratioP2;P2;SDS_P1;SDS_P2;PMS_P1;PMS_P2;Temp;Humidity;BMP_temperature;BMP_pressure;BME280_temperature;BME280_humidity;BME280_pressure;Samples;Min_cycle;Max_cycle;Signal;HPM_P1;HPM_P2
2021/09/04 00:00:43;;;;;;;7.78;3.90;;;22.80;67.40;;;;;;6227851;28;20480;-81
2021/09/04 00:03:44;;;;;;;5.88;3.17;;;22.70;67.30;;;;;;6242553;28;20086;-81
2021/09/04 00:06:46;;;;;;;6.22;3.45;;;22.70;67.30;;;;;;6242526;28;20045;-80
2021/09/04 00:09:47;;;;;;;4.25;3.00;;;22.70;67.20;;;;;;6239094;28;20061;-83
2021/09/04 00:12:49;;;;;;;5.38;3.20;;;22.70;67.10;;;;;;6226438;28;20047;-81
2021/09/04 00:15:50;;;;;;;10.30;3.70;;;22.80;67.10;;;;;;6244018;28;20030;-81
2021/09/04 00:18:51;;;;;;;8.73;4.07;;;22.80;67.10;;;;;;6244944;28;20033;-81
2021/09/04 00:21:52;;;;;;;7.45;3.60;;;22.80;67.10;;;;;;6213842;28;20049;-81
2021/09/04 00:24:53;;;;;;;4.40;3.28;;;22.70;67.20;;;;;;6244450;28;20033;-81
2021/09/04 00:27:54;;;;;;;6.40;3.67;;;22.70;67.20;;;;;;6243086;28;20478;-82
2021/09/04 00:30:55;;;;;;;8.90;3.38;;;22.70;67.20;;;;;;6233171;28;20049;-82
2021/09/04 00:33:56;;;;;;;9.82;4.70;;;22.80;67.20;;;;;;6226512;28;20057;-81
2021/09/04 00:36:58;;;;;;;7.38;3.85;;;22.80;67.10;;;;;;6243089;28;20067;-82
2021/09/04 00:39:59;;;;;;;6.03;3.53;;;22.80;67.10;;;;;;6242852;28;20033;-81
2021/09/04 00:43:00;;;;;;;5.20;3.22;;;22.80;67.00;;;;;;6248076;28;20134;-81
2021/09/04 00:46:10;;;;;;;10.98;2.97;;;22.90;66.90;;;;;;6231708;28;20183;-81
2021/09/04 00:49:12;;;;;;;5.82;3.30;;;22.90;66.80;;;;;;6246735;28;20083;-81
2021/09/04 00:52:13;;;;;;;8.90;4.00;;;22.90;66.60;;;;;;6232748;28;20454;-81
2021/09/04 00:55:14;;;;;;;11.93;4.07;;;22.90;66.50;;;;;;6247668;28;20089;-81
2021/09/04 00:58:15;;;;;;;8.25;4.20;;;22.80;66.60;;;;;;6253775;28;20044;-81
2021/09/04 01:01:16;;;;;;;10.40;4.88;;;22.90;66.90;;;;;;6241233;28;20029;-82
2021/09/04 01:04:21;;;;;;;10.73;4.90;;;22.80;67.00;;;;;;6246087;28;20497;-81
2021/09/04 01:07:22;;;;;;;6.85;3.95;;;22.80;67.30;;;;;;6243224;28;20044;-81
2021/09/04 01:10:26;;;;;;;10.18;4.00;;;22.80;67.50;;;;;;6245344;28;20037;-81
2021/09/04 01:13:27;;;;;;;7.63;4.35;;;22.80;67.60;;;;;;6246435;28;20030;-82
2021/09/04 01:16:37;;;;;;;7.28;3.45;;;22.80;67.80;;;;;;6232286;28;20485;-82
2021/09/04 01:19:38;;;;;;;9.63;4.35;;;22.70;67.60;;;;;;6245085;28;20656;-82
2021/09/04 01:22:39;;;;;;;11.23;4.18;;;22.70;67.60;;;;;;6228770;28;20029;-81
2021/09/04 01:25:43;;;;;;;8.35;3.88;;;22.80;67.50;;;;;;6231565;28;20033;-81
2021/09/04 01:28:44;;;;;;;5.90;3.45;;;22.70;67.40;;;;;;6247737;28;20045;-81
2021/09/04 01:31:45;;;;;;;5.60;3.80;;;22.80;67.30;;;;;;6250695;28;20086;-81
2021/09/04 01:34:46;;;;;;;7.10;3.90;;;22.70;67.40;;;;;;6234279;28;20179;-81
2021/09/04 01:37:47;;;;;;;11.07;4.53;;;22.70;67.40;;;;;;6225019;28;20037;-82
2021/09/04 01:40:49;;;;;;;14.50;4.70;;;22.70;67.40;;;;;;6258389;28;20045;-82
2021/09/04 01:43:51;;;;;;;6.97;3.83;;;22.70;67.40;;;;;;6247617;28;20037;-82
2021/09/04 01:46:52;;;;;;;10.05;4.35;;;22.70;67.50;;;;;;6231339;28;20045;-82
2021/09/04 01:49:56;;;;;;;9.63;4.55;;;22.70;67.50;;;;;;6244894;28;20121;-82
2021/09/04 01:52:58;;;;;;;7.57;4.18;;;22.70;67.50;;;;;;6245610;28;21045;-82
2021/09/04 01:56:00;;;;;;;8.02;3.55;;;22.70;67.70;;;;;;6231204;28;20041;-81
2021/09/04 01:59:01;;;;;;;8.10;3.70;;;22.70;67.60;;;;;;6246930;28;20037;-82
2021/09/04 02:02:03;;;;;;;8.07;3.75;;;22.60;67.60;;;;;;6241984;28;20440;-82
2021/09/04 02:05:09;;;;;;;8.38;3.95;;;22.60;67.70;;;;;;6247997;28;20033;-83
2021/09/04 02:08:11;;;;;;;5.68;3.33;;;23.10;68.10;;;;;;6247961;28;20172;-82
2021/09/04 02:11:12;;;;;;;3.83;3.15;;;22.60;67.80;;;;;;6229517;28;20056;-81
2021/09/04 02:14:13;;;;;;;5.22;3.15;;;22.50;67.70;;;;;;6250951;28;20461;-81
2021/09/04 02:17:14;;;;;;;10.70;4.20;;;22.60;67.60;;;;;;6230891;28;20045;-81
2021/09/04 02:20:16;;;;;;;11.02;3.85;;;22.50;67.30;;;;;;6235530;28;20037;-82
2021/09/04 02:23:17;;;;;;;8.65;3.67;;;22.50;67.20;;;;;;6233030;28;20041;-82
2021/09/04 02:26:18;;;;;;;4.07;3.00;;;22.50;68.10;;;;;;6251022;28;20037;-81
2021/09/04 02:29:19;;;;;;;5.55;3.22;;;22.50;67.30;;;;;;6247649;28;20045;-82
2021/09/04 02:32:21;;;;;;;6.65;3.60;;;22.50;67.10;;;;;;6249847;28;20030;-82
2021/09/04 02:35:24;;;;;;;4.75;3.38;;;22.50;67.00;;;;;;6250315;28;20088;-82
2021/09/04 02:38:25;;;;;;;6.45;3.10;;;22.50;66.90;;;;;;6250526;28;20025;-82
2021/09/04 02:41:26;;;;;;;5.03;3.33;;;22.50;66.90;;;;;;6249070;28;20037;-81
2021/09/04 02:44:29;;;;;;;7.10;3.35;;;22.50;67.00;;;;;;6248737;28;20573;-82
2021/09/04 02:47:30;;;;;;;4.38;3.13;;;22.50;67.00;;;;;;6249063;28;20051;-82
2021/09/04 02:50:31;;;;;;;7.15;3.33;;;22.50;67.00;;;;;;6242759;28;20053;-82
2021/09/04 02:53:32;;;;;;;3.75;3.10;;;22.50;66.80;;;;;;6231481;28;20055;-82
2021/09/04 02:56:34;;;;;;;6.70;3.78;;;22.50;66.90;;;;;;6250044;28;20103;-82
2021/09/04 02:59:35;;;;;;;5.97;3.13;;;22.50;66.90;;;;;;6247749;28;20111;-82
2021/09/04 03:02:37;;;;;;;7.50;3.30;;;22.60;66.90;;;;;;6247869;28;20026;-83
2021/09/04 03:05:39;;;;;;;4.13;3.03;;;22.60;66.80;;;;;;6249625;28;20037;-82
2021/09/04 03:08:41;;;;;;;8.80;3.67;;;22.60;66.80;;;;;;6246623;28;20031;-82
2021/09/04 03:11:43;;;;;;;6.45;3.35;;;22.60;66.70;;;;;;6231275;28;20029;-82
2021/09/04 03:14:44;;;;;;;5.05;3.20;;;22.60;66.60;;;;;;6231607;28;20041;-82
2021/09/04 03:17:45;;;;;;;5.88;3.03;;;22.60;66.70;;;;;;6247907;28;20120;-82
2021/09/04 03:20:46;;;;;;;6.35;3.05;;;22.60;66.60;;;;;;6247132;28;20037;-82
2021/09/04 03:23:47;;;;;;;8.45;3.10;;;22.60;66.50;;;;;;6250360;28;20072;-82
2021/09/04 03:26:49;;;;;;;5.45;3.20;;;22.60;66.60;;;;;;6251651;28;20037;-82
2021/09/04 03:29:52;;;;;;;4.80;2.80;;;22.60;66.70;;;;;;6248708;28;20029;-82
2021/09/04 03:32:53;;;;;;;6.00;3.08;;;22.50;66.50;;;;;;6221197;28;20038;-82
2021/09/04 03:35:55;;;;;;;7.28;3.70;;;22.60;66.60;;;;;;6247450;28;20029;-82
2021/09/04 03:38:57;;;;;;;5.63;3.40;;;22.60;66.60;;;;;;6247209;28;20041;-82
2021/09/04 03:41:59;;;;;;;5.18;3.88;;;22.60;66.50;;;;;;6230719;28;20072;-82
2021/09/04 03:45:02;;;;;;;4.68;3.20;;;22.60;66.50;;;;;;6231605;28;20123;-82
2021/09/04 03:48:03;;;;;;;5.47;3.30;;;22.60;66.40;;;;;;6235501;28;20054;-82
2021/09/04 03:51:04;;;;;;;6.00;3.53;;;22.60;66.50;;;;;;6238020;28;20047;-82
2021/09/04 03:54:06;;;;;;;6.00;3.25;;;22.70;66.50;;;;;;6247039;28;20045;-82
2021/09/04 03:57:07;;;;;;;9.55;3.25;;;22.60;66.40;;;;;;6248198;28;20124;-82
2021/09/04 04:00:09;;;;;;;6.82;3.67;;;22.60;66.40;;;;;;6246698;28;20048;-81
2021/09/04 04:03:12;;;;;;;5.88;3.58;;;22.60;66.50;;;;;;6247117;28;20034;-81
2021/09/04 04:06:14;;;;;;;6.65;3.55;;;22.60;66.50;;;;;;6230772;28;20042;-81
2021/09/04 04:09:15;;;;;;;6.10;3.60;;;22.60;66.60;;;;;;6246098;28;20061;-81
2021/09/04 04:12:16;;;;;;;12.50;3.92;;;22.60;66.70;;;;;;6239512;28;20934;-82
2021/09/04 04:15:17;;;;;;;4.80;3.30;;;22.60;66.70;;;;;;6250901;28;20043;-81
2021/09/04 04:18:18;;;;;;;7.10;4.05;;;22.50;66.80;;;;;;6256738;28;20042;-83
2021/09/04 04:21:19;;;;;;;6.28;3.25;;;22.50;67.00;;;;;;6253275;28;20041;-83
2021/09/04 04:24:20;;;;;;;6.07;3.75;;;22.50;67.10;;;;;;6252683;28;20103;-82
2021/09/04 04:27:22;;;;;;;5.68;3.58;;;22.50;67.10;;;;;;6252926;28;20128;-82
2021/09/04 04:30:23;;;;;;;4.57;3.17;;;22.60;67.20;;;;;;6252417;28;20045;-81
2021/09/04 04:33:24;;;;;;;8.10;3.30;;;22.50;67.30;;;;;;6229954;28;20037;-81
2021/09/04 04:36:25;;;;;;;7.10;3.35;;;22.50;67.30;;;;;;6250757;28;20075;-81
2021/09/04 04:39:26;;;;;;;9.48;3.92;;;22.50;67.30;;;;;;6251592;28;20057;-81
2021/09/04 04:42:28;;;;;;;7.20;3.83;;;22.50;67.30;;;;;;6213483;28;20359;-82
2021/09/04 04:45:29;;;;;;;8.68;4.10;;;22.50;67.40;;;;;;6227031;28;20052;-82
2021/09/04 04:48:33;;;;;;;11.45;3.90;;;22.50;67.40;;;;;;6251224;28;20487;-81
2021/09/04 04:51:36;;;;;;;4.80;3.60;;;22.50;67.50;;;;;;6250785;28;20041;-83
2021/09/04 04:54:37;;;;;;;7.25;3.33;;;22.50;67.60;;;;;;6251830;28;20116;-82
2021/09/04 04:57:39;;;;;;;12.07;3.58;;;22.50;67.70;;;;;;6232634;28;20466;-82
2021/09/04 05:00:40;;;;;;;9.13;3.22;;;22.40;67.80;;;;;;6243103;28;20155;-82
2021/09/04 05:03:42;;;;;;;7.32;3.78;;;22.40;67.80;;;;;;6251914;28;20542;-82
2021/09/04 05:06:44;;;;;;;5.10;3.67;;;22.40;67.90;;;;;;6251042;28;20030;-82
2021/09/04 05:09:45;;;;;;;4.90;3.22;;;22.40;67.90;;;;;;6243996;28;20033;-82
2021/09/04 05:12:46;;;;;;;9.77;3.00;;;22.40;67.80;;;;;;6233989;28;20033;-82
2021/09/04 05:15:48;;;;;;;2.88;2.30;;;22.40;68.20;;;;;;6235633;28;20037;-82
2021/09/04 05:18:49;;;;;;;4.43;2.90;;;22.40;67.70;;;;;;6249096;28;20374;-82
2021/09/04 05:21:52;;;;;;;5.40;3.58;;;22.40;67.80;;;;;;6254969;28;20038;-82
2021/09/04 05:24:53;;;;;;;6.95;3.95;;;22.40;67.60;;;;;;6234605;28;20041;-82
2021/09/04 05:27:54;;;;;;;6.25;3.65;;;22.30;67.70;;;;;;6250376;28;20149;-82
2021/09/04 05:30:56;;;;;;;8.65;3.50;;;22.30;67.90;;;;;;6250504;28;20092;-82
2021/09/04 05:33:58;;;;;;;8.43;4.47;;;22.30;68.80;;;;;;6233976;28;20037;-82
2021/09/04 05:36:59;;;;;;;7.25;4.43;;;22.30;68.00;;;;;;6252026;28;20096;-82
2021/09/04 05:40:00;;;;;;;8.90;4.47;;;22.30;68.10;;;;;;6250959;28;20128;-82
2021/09/04 05:43:01;;;;;;;7.45;4.50;;;22.30;68.20;;;;;;6250781;28;20095;-81
2021/09/04 05:46:03;;;;;;;8.35;5.25;;;22.30;68.30;;;;;;6234410;28;20033;-82
2021/09/04 05:49:04;;;;;;;7.82;4.35;;;22.30;68.50;;;;;;6234203;28;20466;-82
2021/09/04 05:52:05;;;;;;;9.20;4.63;;;22.30;68.50;;;;;;6249311;28;20057;-82
2021/09/04 05:55:06;;;;;;;6.28;4.45;;;22.30;68.60;;;;;;6223314;28;20506;-82
2021/09/04 05:58:07;;;;;;;6.60;4.38;;;22.30;68.70;;;;;;6233906;28;20037;-82
2021/09/04 06:01:08;;;;;;;6.50;4.70;;;22.30;68.70;;;;;;6249492;28;20034;-82
2021/09/04 06:04:09;;;;;;;8.00;5.22;;;22.30;68.70;;;;;;6233537;28;20045;-83
2021/09/04 06:07:10;;;;;;;18.20;5.35;;;22.30;68.80;;;;;;6249897;28;20374;-83
2021/09/04 06:10:11;;;;;;;11.30;5.00;;;22.30;68.80;;;;;;6249769;28;20489;-83
2021/09/04 06:13:12;;;;;;;6.05;4.20;;;22.30;68.80;;;;;;6250735;28;20135;-82
2021/09/04 06:16:13;;;;;;;10.88;4.97;;;22.30;68.80;;;;;;6249891;28;20471;-83
2021/09/04 06:19:14;;;;;;;9.20;5.60;;;22.30;68.90;;;;;;6249658;28;20061;-83
2021/09/04 06:22:15;;;;;;;9.52;5.18;;;22.30;69.00;;;;;;6232688;28;20407;-82
2021/09/04 06:25:18;;;;;;;10.95;5.78;;;22.30;69.00;;;;;;6249868;28;20041;-83
2021/09/04 06:28:19;;;;;;;13.18;5.68;;;22.30;68.70;;;;;;6236237;28;20052;-82
2021/09/04 06:31:20;;;;;;;12.27;5.60;;;22.20;68.80;;;;;;6248758;28;20045;-83
2021/09/04 06:34:21;;;;;;;11.48;5.65;;;22.20;69.40;;;;;;6247609;28;20041;-82
2021/09/04 06:37:22;;;;;;;9.75;6.10;;;22.10;69.20;;;;;;6231393;28;20381;-82
2021/09/04 06:40:23;;;;;;;13.00;6.55;;;22.10;69.40;;;;;;6242259;28;20359;-81
2021/09/04 06:43:24;;;;;;;10.38;6.05;;;22.10;69.40;;;;;;6238348;28;20088;-82
2021/09/04 06:46:26;;;;;;;11.57;5.75;;;22.10;69.50;;;;;;6242655;28;20029;-81
2021/09/04 06:49:27;;;;;;;11.80;5.82;;;22.10;69.50;;;;;;6248449;28;20022;-82
2021/09/04 06:52:27;;;;;;;9.43;5.88;;;22.10;69.50;;;;;;6229060;28;20040;-81
2021/09/04 06:55:28;;;;;;;11.63;5.90;;;22.10;69.40;;;;;;6229581;28;20032;-83
2021/09/04 06:58:29;;;;;;;14.23;5.38;;;22.20;70.20;;;;;;6231180;28;20357;-82
2021/09/04 07:01:30;;;;;;;9.90;5.38;;;22.20;69.20;;;;;;6248398;28;20029;-81
2021/09/04 07:04:31;;;;;;;11.38;5.20;;;22.30;69.20;;;;;;6244200;28;20454;-83
2021/09/04 07:07:33;;;;;;;10.60;5.60;;;22.30;69.00;;;;;;6226924;28;20079;-81
2021/09/04 07:10:34;;;;;;;9.30;4.90;;;22.40;68.80;;;;;;6245899;28;20026;-82
2021/09/04 07:13:35;;;;;;;7.82;5.03;;;23.30;69.00;;;;;;6248651;28;20029;-81
2021/09/04 07:16:36;;;;;;;10.32;6.15;;;22.50;68.30;;;;;;6231130;28;20064;-80
2021/09/04 07:19:38;;;;;;;9.20;4.68;;;22.50;68.10;;;;;;6248883;28;20034;-80
2021/09/04 07:22:39;;;;;;;17.85;5.40;;;22.60;68.20;;;;;;6219545;28;20128;-79
2021/09/04 07:25:40;;;;;;;6.57;4.22;;;22.60;68.00;;;;;;6248058;28;20041;-78
2021/09/04 07:28:41;;;;;;;8.20;5.18;;;22.70;67.90;;;;;;6245633;28;20037;-78
2021/09/04 07:31:42;;;;;;;7.57;5.03;;;22.80;67.70;;;;;;6229158;28;20124;-78
2021/09/04 07:34:42;;;;;;;7.88;5.40;;;22.80;67.40;;;;;;6210118;28;20033;-77
2021/09/04 07:37:44;;;;;;;12.00;5.22;;;22.90;67.10;;;;;;6222706;28;20100;-78
2021/09/04 07:40:45;;;;;;;13.23;7.15;;;23.00;66.80;;;;;;6229978;28;20171;-78
2021/09/04 07:43:46;;;;;;;13.43;8.40;;;23.00;66.50;;;;;;6226968;28;20465;-79
2021/09/04 07:46:47;;;;;;;12.27;8.10;;;23.00;67.40;;;;;;6236275;28;20108;-78
2021/09/04 07:49:48;;;;;;;10.82;6.05;;;23.00;66.50;;;;;;6244637;28;20494;-78
2021/09/04 07:52:51;;;;;;;10.05;5.38;;;23.00;66.40;;;;;;6247910;28;20470;-78
2021/09/04 07:55:52;;;;;;;10.10;6.50;;;23.00;66.30;;;;;;6232787;28;20056;-78
2021/09/04 07:58:52;;;;;;;14.10;5.65;;;23.00;66.30;;;;;;6238014;28;20033;-78
2021/09/04 08:01:53;;;;;;;14.15;6.13;;;22.90;66.10;;;;;;6254665;28;20038;-78
2021/09/04 08:04:54;;;;;;;8.18;4.50;;;23.00;66.30;;;;;;6255714;28;20099;-78
2021/09/04 08:07:55;;;;;;;7.30;4.72;;;23.00;66.20;;;;;;6255017;28;20146;-79
2021/09/04 08:10:57;;;;;;;8.68;3.90;;;22.90;66.10;;;;;;6240802;28;20056;-79
2021/09/04 08:13:58;;;;;;;6.38;4.07;;;22.90;66.10;;;;;;6255191;28;20041;-78
2021/09/04 08:16:59;;;;;;;8.77;4.32;;;23.00;66.10;;;;;;6255456;28;20052;-78
2021/09/04 08:20:02;;;;;;;8.48;5.07;;;23.00;66.00;;;;;;6231024;28;20061;-79
2021/09/04 08:23:07;;;;;;;11.90;4.72;;;23.10;65.90;;;;;;6254739;28;20033;-78
2021/09/04 08:26:07;;;;;;;13.65;5.40;;;23.10;65.70;;;;;;6255005;28;20033;-79
2021/09/04 08:29:10;;;;;;;13.15;7.13;;;23.20;65.40;;;;;;6254469;28;20458;-77
2021/09/04 08:32:11;;;;;;;12.45;6.25;;;23.20;65.40;;;;;;6254382;28;20037;-78
2021/09/04 08:35:12;;;;;;;8.60;4.82;;;23.30;65.40;;;;;;6238450;28;20465;-79
2021/09/04 08:38:15;;;;;;;8.82;5.70;;;23.30;65.10;;;;;;6236469;28;20041;-78
2021/09/04 08:41:16;;;;;;;9.45;4.38;;;23.30;65.10;;;;;;6230219;28;20064;-78
2021/09/04 08:44:17;;;;;;;8.32;4.75;;;23.40;64.90;;;;;;6238119;28;20132;-78
2021/09/04 08:47:22;;;;;;;5.30;3.75;;;23.50;64.70;;;;;;6254643;28;20041;-79
2021/09/04 08:50:26;;;;;;;9.02;5.20;;;23.60;64.10;;;;;;6254674;28;20037;-79
2021/09/04 08:53:29;;;;;;;8.45;4.93;;;23.70;63.80;;;;;;6253309;28;20417;-79
2021/09/04 08:56:30;;;;;;;8.10;5.30;;;23.80;63.50;;;;;;6254217;28;20033;-78
2021/09/04 08:59:31;;;;;;;8.98;5.47;;;23.90;63.40;;;;;;6255391;28;20029;-79
2021/09/04 09:02:32;;;;;;;8.82;4.97;;;24.00;63.00;;;;;;6253013;28;21153;-78
2021/09/04 09:05:42;;;;;;;9.48;5.80;;;24.10;62.60;;;;;;6229603;28;20033;-78
2021/09/04 09:08:43;;;;;;;10.18;5.05;;;24.20;62.50;;;;;;6224778;28;20383;-78
2021/09/04 09:11:46;;;;;;;6.47;3.78;;;24.20;62.30;;;;;;6232620;28;20052;-78
2021/09/04 09:14:57;;;;;;;9.13;4.13;;;24.40;61.90;;;;;;6230664;28;20466;-77
2021/09/04 09:18:07;;;;;;;7.28;4.40;;;24.50;61.50;;;;;;6249806;28;20038;-78
2021/09/04 09:21:08;;;;;;;9.25;4.82;;;24.50;61.20;;;;;;6245303;28;20108;-78
2021/09/04 09:24:14;;;;;;;6.43;4.10;;;24.50;61.10;;;;;;6233057;28;20049;-78
2021/09/04 09:27:15;;;;;;;10.32;4.78;;;24.70;61.10;;;;;;6233726;28;20095;-78
2021/09/04 09:30:16;;;;;;;9.07;5.28;;;24.80;60.70;;;;;;6249536;28;20049;-78
2021/09/04 09:33:23;;;;;;;7.20;3.78;;;24.90;60.30;;;;;;6232266;28;20038;-78
2021/09/04 09:36:25;;;;;;;6.30;3.58;;;25.00;60.20;;;;;;6248968;28;20044;-78
2021/09/04 09:39:33;;;;;;;12.63;4.50;;;25.20;59.90;;;;;;6233209;28;20052;-79
2021/09/04 09:42:46;;;;;;;6.00;3.92;;;25.30;59.60;;;;;;6232642;28;20120;-78
2021/09/04 09:45:50;;;;;;;18.58;9.18;;;25.40;59.10;;;;;;6249192;28;20454;-79
2021/09/04 09:48:56;;;;;;;6.72;4.47;;;25.50;58.90;;;;;;6240968;28;20034;-78
2021/09/04 09:52:05;;;;;;;7.57;3.50;;;25.60;58.60;;;;;;6249485;28;20492;-78
2021/09/04 09:55:07;;;;;;;20.77;9.05;;;25.80;58.40;;;;;;6240406;28;20103;-78
2021/09/04 09:58:10;;;;;;;14.85;8.15;;;25.90;58.00;;;;;;6246803;28;20057;-78
2021/09/04 10:01:11;;;;;;;8.88;4.57;;;26.00;57.70;;;;;;6232036;28;20052;-78
2021/09/04 10:04:13;;;;;;;7.15;4.63;;;26.10;58.10;;;;;;6231446;28;20056;-78
2021/09/04 10:07:17;;;;;;;23.05;11.40;;;26.30;57.40;;;;;;6243661;28;20113;-78
2021/09/04 10:10:18;;;;;;;22.67;10.85;;;26.50;57.10;;;;;;6247962;28;20091;-78
2021/09/04 10:13:19;;;;;;;10.82;7.25;;;26.50;56.80;;;;;;6247593;28;20071;-80
2021/09/04 10:16:21;;;;;;;14.85;7.80;;;26.60;56.60;;;;;;6232273;28;20111;-79
2021/09/04 10:19:27;;;;;;;14.32;7.13;;;26.70;56.30;;;;;;6247672;28;20377;-80
2021/09/04 10:22:28;;;;;;;20.90;10.40;;;26.80;56.30;;;;;;6248306;28;20050;-79
2021/09/04 10:25:33;;;;;;;5.20;3.83;;;27.00;56.00;;;;;;6248240;28;20059;-80
2021/09/04 10:29:00;;;;;;;8.63;5.25;;;27.20;55.40;;;;;;6232125;28;20508;-78
2021/09/04 10:32:03;;;;;;;5.00;3.42;;;27.40;55.00;;;;;;6233473;28;20124;-79
2021/09/04 10:35:06;;;;;;;34.53;18.02;;;27.30;54.30;;;;;;6249078;28;20084;-80
2021/09/04 10:38:23;;;;;;;17.48;8.18;;;27.60;54.20;;;;;;6247143;28;20026;-80
2021/09/04 10:41:24;;;;;;;5.05;3.65;;;27.60;53.90;;;;;;6225259;28;20049;-78
2021/09/04 10:44:26;;;;;;;9.07;5.25;;;27.80;53.60;;;;;;6247624;28;20045;-79
2021/09/04 10:47:28;;;;;;;7.07;4.35;;;28.00;53.00;;;;;;6244906;28;20033;-79
2021/09/04 10:50:33;;;;;;;5.32;3.30;;;28.20;52.80;;;;;;6230459;28;20046;-79
2021/09/04 10:53:47;;;;;;;7.78;3.25;;;28.40;52.40;;;;;;6250560;28;20029;-80
2021/09/04 10:56:47;;;;;;;13.88;7.47;;;28.60;51.70;;;;;;6246011;28;20078;-80
2021/09/04 11:00:09;;;;;;;7.38;4.68;;;28.90;51.00;;;;;;6246606;28;20052;-81
2021/09/04 11:03:12;;;;;;;11.63;6.95;;;29.30;50.40;;;;;;6247721;28;20033;-78
2021/09/04 11:06:24;;;;;;;7.88;4.35;;;29.50;49.20;;;;;;6247099;28;20120;-77
2021/09/04 11:09:48;;;;;;;11.07;5.30;;;29.50;49.10;;;;;;6230629;28;20073;-78
2021/09/04 11:13:13;;;;;;;8.93;4.63;;;29.30;49.20;;;;;;6204545;28;20029;-78
2021/09/04 11:16:27;;;;;;;13.13;3.67;;;29.20;49.40;;;;;;6214873;28;20041;-78
2021/09/04 11:19:32;;;;;;;9.55;2.97;;;29.20;49.40;;;;;;6220597;28;20086;-77
2021/09/04 11:22:35;;;;;;;10.10;3.30;;;29.20;48.90;;;;;;6242537;28;20093;-77
2021/09/04 11:25:40;;;;;;;15.52;8.35;;;29.20;48.60;;;;;;6240868;28;20033;-77
2021/09/04 11:28:42;;;;;;;9.93;4.22;;;29.30;48.30;;;;;;6243549;28;20343;-77
2021/09/04 11:31:55;;;;;;;7.03;3.92;;;29.50;48.00;;;;;;6242830;28;20037;-78
2021/09/04 11:35:01;;;;;;;16.70;7.97;;;29.90;47.50;;;;;;6243341;28;20091;-77
2021/09/04 11:38:02;;;;;;;5.68;3.50;;;30.20;46.70;;;;;;6238575;28;20099;-77
2021/09/04 11:41:03;;;;;;;11.27;5.90;;;30.50;46.20;;;;;;6241732;28;20057;-77
2021/09/04 11:44:04;;;;;;;7.03;3.03;;;30.90;45.80;;;;;;6241663;28;20045;-77
2021/09/04 11:47:05;;;;;;;9.48;3.50;;;31.20;45.20;;;;;;6221793;28;20045;-77
2021/09/04 11:50:08;;;;;;;9.25;5.18;;;31.60;44.40;;;;;;6241518;28;20044;-78
2021/09/04 11:53:14;;;;;;;6.05;3.75;;;32.10;43.70;;;;;;6223543;28;20374;-78
2021/09/04 11:56:17;;;;;;;7.97;4.63;;;32.60;42.60;;;;;;6239380;28;20040;-78
2021/09/04 11:59:18;;;;;;;4.50;3.17;;;33.00;42.00;;;;;;6233181;28;20060;-78
2021/09/04 12:02:19;;;;;;;4.03;2.72;;;33.40;40.60;;;;;;6242099;28;20091;-78
2021/09/04 12:05:25;;;;;;;4.82;2.42;;;33.60;40.30;;;;;;6215067;28;20394;-77
2021/09/04 12:08:28;;;;;;;3.55;2.25;;;33.70;39.50;;;;;;6224285;28;20065;-77
2021/09/04 12:11:30;;;;;;;4.03;2.65;;;33.80;39.70;;;;;;6242795;28;20095;-78
2021/09/04 12:14:32;;;;;;;2.40;2.20;;;34.10;39.20;;;;;;6225528;28;20048;-78
2021/09/04 12:17:45;;;;;;;6.88;2.65;;;34.50;37.90;;;;;;6245042;28;20031;-76
2021/09/04 12:20:46;;;;;;;2.55;1.92;;;34.90;36.90;;;;;;6237064;28;20104;-79
2021/09/04 12:23:55;;;;;;;9.38;5.43;;;35.30;36.10;;;;;;6242843;28;20132;-78
2021/09/04 12:26:56;;;;;;;2.95;2.05;;;35.40;35.30;;;;;;6241597;28;20088;-79
2021/09/04 12:30:01;;;;;;;4.53;2.13;;;35.30;35.30;;;;;;6243115;28;20099;-78
2021/09/04 12:33:04;;;;;;;2.45;1.80;;;35.20;35.50;;;;;;6226573;28;20041;-78
2021/09/04 12:36:08;;;;;;;2.40;1.85;;;35.10;35.30;;;;;;6225521;28;20032;-78
2021/09/04 12:39:18;;;;;;;3.58;2.08;;;35.10;35.10;;;;;;6247835;28;20120;-78
2021/09/04 12:42:19;;;;;;;2.65;1.60;;;35.30;34.50;;;;;;6248004;28;20026;-78
2021/09/04 12:45:19;;;;;;;5.43;2.80;;;35.50;34.10;;;;;;6247254;28;20064;-78
2021/09/04 12:48:37;;;;;;;3.33;1.90;;;36.10;32.60;;;;;;6249598;28;20057;-78
2021/09/04 12:51:38;;;;;;;4.30;2.20;;;37.10;31.10;;;;;;6247993;28;20037;-78
2021/09/04 12:54:42;;;;;;;5.22;3.35;;;38.10;29.50;;;;;;6248414;28;20037;-78
2021/09/04 12:57:43;;;;;;;5.30;1.95;;;38.90;29.00;;;;;;6221401;28;20046;-78
2021/09/04 13:00:45;;;;;;;3.95;1.70;;;39.00;28.10;;;;;;6225569;28;20048;-77
2021/09/04 13:03:46;;;;;;;2.72;1.80;;;38.40;28.70;;;;;;6246698;28;20108;-78
2021/09/04 13:06:57;;;;;;;3.60;1.63;;;38.20;28.90;;;;;;6247822;28;20037;-78
2021/09/04 13:09:58;;;;;;;2.22;1.52;;;38.60;28.70;;;;;;6240415;28;20426;-78
2021/09/04 13:12:59;;;;;;;1.70;1.60;;;39.50;27.90;;;;;;6241339;28;20095;-79
2021/09/04 13:16:01;;;;;;;5.60;3.67;;;40.30;27.10;;;;;;6247282;28;20083;-79
2021/09/04 13:19:02;;;;;;;2.85;2.03;;;40.80;26.40;;;;;;6248964;28;20083;-79
2021/09/04 13:22:03;;;;;;;2.10;1.77;;;41.10;25.90;;;;;;6246259;28;20026;-79
2021/09/04 13:25:06;;;;;;;3.13;2.08;;;41.40;25.50;;;;;;6246373;28;20067;-79
2021/09/04 13:28:08;;;;;;;2.30;1.70;;;41.40;25.40;;;;;;6247135;28;20037;-79
2021/09/04 13:31:09;;;;;;;3.72;1.60;;;41.30;25.20;;;;;;6228543;28;20041;-79
2021/09/04 13:34:11;;;;;;;4.72;2.13;;;41.70;25.20;;;;;;6245165;28;20036;-79
2021/09/04 13:37:15;;;;;;;1.70;1.52;;;42.20;24.70;;;;;;6240391;28;20034;-80
2021/09/04 13:40:16;;;;;;;3.55;1.73;;;42.70;24.20;;;;;;6239506;28;20048;-79
2021/09/04 13:43:16;;;;;;;2.78;1.55;;;43.10;23.90;;;;;;6224559;28;20088;-80
2021/09/04 13:46:17;;;;;;;6.20;3.10;;;43.30;23.50;;;;;;6247171;28;20344;-79
2021/09/04 13:49:18;;;;;;;2.95;1.80;;;43.40;23.30;;;;;;6246409;28;20065;-79
2021/09/04 13:52:19;;;;;;;2.08;1.50;;;43.30;23.20;;;;;;6220496;28;20378;-79
2021/09/04 13:55:20;;;;;;;2.75;1.80;;;43.30;23.20;;;;;;6229691;28;20489;-79
2021/09/04 13:58:22;;;;;;;2.35;1.80;;;43.00;22.90;;;;;;6228158;28;20092;-79
2021/09/04 14:01:23;;;;;;;2.03;1.83;;;42.00;23.60;;;;;;6246684;28;20033;-78
2021/09/04 14:04:23;;;;;;;2.10;1.60;;;40.60;24.60;;;;;;6249023;28;20076;-78
2021/09/04 14:07:24;;;;;;;3.90;1.80;;;39.40;25.60;;;;;;6247206;28;20293;-78
2021/09/04 14:10:27;;;;;;;3.92;1.70;;;38.50;26.50;;;;;;6247218;28;20037;-79
2021/09/04 14:13:28;;;;;;;4.45;2.05;;;37.60;27.10;;;;;;6247095;28;20072;-78
2021/09/04 14:16:29;;;;;;;3.42;2.00;;;36.80;27.90;;;;;;6247875;28;20047;-78
2021/09/04 14:19:30;;;;;;;2.00;1.80;;;35.90;28.60;;;;;;6247075;28;20033;-78
2021/09/04 14:22:31;;;;;;;2.92;1.90;;;35.20;29.40;;;;;;6246718;28;20056;-78
2021/09/04 14:25:32;;;;;;;1.60;1.45;;;34.50;30.10;;;;;;6247655;28;20386;-78
2021/09/04 14:28:34;;;;;;;2.83;1.80;;;34.00;31.10;;;;;;6249971;28;20474;-77
2021/09/04 14:31:35;;;;;;;2.50;1.67;;;33.40;31.80;;;;;;6230595;28;20060;-78
2021/09/04 14:34:36;;;;;;;3.55;1.77;;;33.00;32.60;;;;;;6228715;28;20029;-79
2021/09/04 14:37:37;;;;;;;1.70;1.60;;;32.60;33.00;;;;;;6230745;28;20040;-81
2021/09/04 14:40:38;;;;;;;2.60;1.90;;;32.40;33.40;;;;;;6229474;28;20045;-78
2021/09/04 14:43:39;;;;;;;6.95;1.92;;;32.20;33.70;;;;;;6227357;28;20059;-79
2021/09/04 14:46:40;;;;;;;5.00;1.88;;;32.10;34.20;;;;;;6227306;28;20355;-79
2021/09/04 14:49:41;;;;;;;2.90;1.90;;;32.00;34.50;;;;;;6247357;28;20051;-80
2021/09/04 14:52:43;;;;;;;4.40;1.83;;;31.80;34.70;;;;;;6230004;28;20391;-78
2021/09/04 14:55:46;;;;;;;3.47;2.05;;;31.80;34.90;;;;;;6245011;28;20363;-80
2021/09/04 14:58:47;;;;;;;2.13;1.70;;;31.80;35.00;;;;;;6245839;28;20103;-78
2021/09/04 15:01:48;;;;;;;3.47;2.40;;;31.80;35.00;;;;;;6223946;28;20038;-78
2021/09/04 15:04:49;;;;;;;2.05;1.70;;;31.80;35.00;;;;;;6244690;28;20072;-79
2021/09/04 15:07:50;;;;;;;2.13;1.85;;;31.80;35.10;;;;;;6240112;28;20029;-78
2021/09/04 15:10:51;;;;;;;3.28;1.95;;;31.80;35.20;;;;;;6222977;28;20038;-78
2021/09/04 15:13:51;;;;;;;3.65;2.30;;;31.80;35.50;;;;;;6226943;28;20034;-78
2021/09/04 15:16:53;;;;;;;2.72;2.20;;;31.70;35.80;;;;;;6228465;28;20094;-79
2021/09/04 15:19:53;;;;;;;3.72;2.17;;;31.60;36.10;;;;;;6242792;28;20443;-78
2021/09/04 15:22:54;;;;;;;6.60;2.00;;;31.50;36.40;;;;;;6241434;28;20033;-79
2021/09/04 15:25:55;;;;;;;2.63;1.90;;;31.30;36.70;;;;;;6232949;28;20136;-80
2021/09/04 15:28:58;;;;;;;2.70;1.80;;;31.10;36.90;;;;;;6238155;28;20029;-79
2021/09/04 15:32:00;;;;;;;3.05;1.95;;;30.90;37.10;;;;;;6237138;28;20037;-79
2021/09/04 15:35:03;;;;;;;4.43;2.33;;;30.80;37.30;;;;;;6241124;28;20037;-80
2021/09/04 15:38:06;;;;;;;2.47;1.70;;;30.70;37.50;;;;;;6240560;28;20029;-79
2021/09/04 15:41:07;;;;;;;2.30;2.00;;;30.60;37.50;;;;;;6235753;28;20116;-78
2021/09/04 15:44:09;;;;;;;3.08;2.13;;;30.60;37.70;;;;;;6246310;28;20037;-81
2021/09/04 15:47:11;;;;;;;3.38;2.00;;;30.60;37.80;;;;;;6224794;28;20045;-79